Arvada, WY (82831)

4:56 PM MDT on July 27, 2016 (GMT -0600)
Gillette-Campbell County | | Change Station

Elev 4364 ft 44.34 °N, 105.54 °W | Updated 3 minutes ago

Light Rain
Light Rain
80 °F
Feels Like 80 °F
N
8
Wind Variable Wind from North

Today
High -- | Low -- °F
--% Chance of Precip.
Yesterday
High -- | Low -- °F
Precip. -- in
Pressure 29.99 in
Visibility 10.0 miles
Clouds Few 7000 ft
Mostly Cloudy 10000 ft
Overcast 12000 ft
Heat Index 80 °F
Dew Point 53 °F
Humidity 39%
Rainfall 0.02 in
Snow Depth Not available.
5:45 AM 8:35 PM
Last Quarter, 39% visible
METAR KGCC 272253Z AUTO 01007KT 10SM -RA FEW070 BKN100 OVC120 27/12 A3013 RMK AO2 LTG DSNT S AND NW RAB38 SLP155 P0000 T02670117
Pressure 29.99 in
Visibility 10.0 miles
Clouds Few 7000 ft
Mostly Cloudy 10000 ft
Overcast 12000 ft
Heat Index 80 °F
Dew Point 53 °F
Humidity 39%
Rainfall 0.02 in
Snow Depth Not available.
5:45 AM 8:35 PM
Last Quarter, 39% visible
METAR KGCC 272253Z AUTO 01007KT 10SM -RA FEW070 BKN100 OVC120 27/12 A3013 RMK AO2 LTG DSNT S AND NW RAB38 SLP155 P0000 T02670117

10-Day Weather Forecast

Almanac

Astronomy

Jul. 27, 2016 Rise Set
Actual Time
Civil Twilight
Nautical Twilight
Astronomical Twilight
Moon
Length of Visible Light
Length of Day
Tomorrow will be .
, % of the Moon is Illuminated

Today's Extremes

State Highs State Lows

Community

WunderPhotos

Upload Photos

1,927,951 photos uploaded!

WunderBlog® & News

Nearby

Air Quality

  Air Quality AQ Index Pollutant
Not available.

Snow Depth

Station Depth Elevation

Earthquake Activity

City Distance Mag. Time & Date
Minimum magnitude displayed is 2.5.

Coastal Water Temperatures

Place Temperature

Stations

Nearby Weather Stations

Station Location Temp. Windchill Dew Point Humidity Wind Precip. Elev Updated Type
                   

Watches & Warnings

There are currently no watches in effect.